createdAt,value
2022-12-24T00:01:24.607Z,9.20
2022-12-24T00:03:51.200Z,9.10
2022-12-24T00:06:17.795Z,9.20
2022-12-24T00:08:44.278Z,9.20
2022-12-24T00:11:10.808Z,9.20
2022-12-24T00:13:37.345Z,9.20
2022-12-24T00:16:03.842Z,9.20
2022-12-24T00:18:30.381Z,9.20
2022-12-24T00:20:56.894Z,9.20
2022-12-24T00:23:23.381Z,9.20
2022-12-24T00:25:50.035Z,9.20
2022-12-24T00:28:16.572Z,9.20
2022-12-24T00:30:43.102Z,9.20
2022-12-24T00:33:09.614Z,9.20
2022-12-24T00:35:36.139Z,9.20
2022-12-24T00:38:03.937Z,9.20
2022-12-24T00:40:30.483Z,9.20
2022-12-24T00:42:56.968Z,9.10
2022-12-24T00:45:23.453Z,9.10
2022-12-24T00:47:49.946Z,9.10
2022-12-24T00:50:16.498Z,9.10
2022-12-24T00:52:42.977Z,9.10
2022-12-24T00:55:09.493Z,9.00
2022-12-24T00:57:36.056Z,9.00
2022-12-24T01:00:02.590Z,8.90
2022-12-24T01:02:29.293Z,8.90
2022-12-24T01:05:11.412Z,8.90
2022-12-24T01:07:37.912Z,8.90
2022-12-24T01:10:04.564Z,8.90
2022-12-24T01:12:31.120Z,8.90
2022-12-24T01:14:57.605Z,8.90
2022-12-24T01:17:24.303Z,8.90
2022-12-24T01:19:50.924Z,8.90
2022-12-24T01:22:17.497Z,8.90
2022-12-24T01:24:44.097Z,8.90
2022-12-24T01:27:10.653Z,8.90
2022-12-24T01:29:37.254Z,8.90
2022-12-24T01:32:03.799Z,8.90
2022-12-24T01:34:30.343Z,8.90
2022-12-24T01:36:56.901Z,8.90
2022-12-24T01:39:23.496Z,8.90
2022-12-24T01:42:08.858Z,8.90
2022-12-24T01:44:36.880Z,9.00
2022-12-24T01:47:03.932Z,8.90
2022-12-24T01:49:30.438Z,8.90
2022-12-24T01:51:57.042Z,8.90
2022-12-24T01:54:23.579Z,8.90
2022-12-24T01:56:50.087Z,8.90
2022-12-24T01:59:16.832Z,8.90
2022-12-24T02:01:43.434Z,8.90
2022-12-24T02:04:10.043Z,8.90
2022-12-24T02:06:36.546Z,8.90
2022-12-24T02:09:03.044Z,8.90
2022-12-24T02:11:29.580Z,8.90
2022-12-24T02:13:56.128Z,8.80
2022-12-24T02:16:22.769Z,8.80
2022-12-24T02:18:49.299Z,8.80
2022-12-24T02:21:15.822Z,8.80
2022-12-24T02:23:42.348Z,8.70
2022-12-24T02:26:08.863Z,8.70
2022-12-24T02:28:35.348Z,8.70
2022-12-24T02:31:01.880Z,8.70
2022-12-24T02:33:28.418Z,8.70
2022-12-24T02:35:54.933Z,8.60
2022-12-24T02:38:21.452Z,8.60
2022-12-24T02:40:47.959Z,8.70
2022-12-24T02:43:14.467Z,8.60
2022-12-24T02:45:40.965Z,8.60
2022-12-24T02:48:07.494Z,8.60
2022-12-24T02:50:34.014Z,8.60
2022-12-24T02:53:00.546Z,8.60
2022-12-24T02:55:27.094Z,8.50
2022-12-24T02:57:53.621Z,8.50
2022-12-24T03:00:20.591Z,8.50
2022-12-24T03:02:47.208Z,8.50
2022-12-24T03:05:13.812Z,8.50
2022-12-24T03:07:40.361Z,8.40
2022-12-24T03:10:07.563Z,8.40
2022-12-24T03:12:34.143Z,8.40
2022-12-24T03:15:00.866Z,8.40
2022-12-24T03:17:27.657Z,8.40
2022-12-24T03:19:54.179Z,8.40
2022-12-24T03:22:20.785Z,8.40
2022-12-24T03:24:47.421Z,8.40
2022-12-24T03:27:13.946Z,8.40
2022-12-24T03:29:40.495Z,8.40
2022-12-24T03:32:06.986Z,8.40
2022-12-24T03:34:33.610Z,8.40
2022-12-24T03:37:00.215Z,8.40
2022-12-24T03:39:26.714Z,8.50
2022-12-24T03:41:53.219Z,8.50
2022-12-24T03:44:19.703Z,8.50
2022-12-24T03:46:46.189Z,8.50
2022-12-24T03:49:12.818Z,8.60
2022-12-24T03:51:39.365Z,8.60
2022-12-24T03:54:05.879Z,8.60
2022-12-24T03:56:32.393Z,8.60
2022-12-24T03:58:58.939Z,8.60
2022-12-24T04:01:25.637Z,8.60
2022-12-24T04:03:52.312Z,8.60
2022-12-24T04:06:18.911Z,8.60
2022-12-24T04:08:45.435Z,8.60
2022-12-24T04:11:11.987Z,8.70
2022-12-24T04:13:38.544Z,8.70
2022-12-24T04:16:05.131Z,8.70
2022-12-24T04:18:31.700Z,8.70
2022-12-24T04:20:58.201Z,8.60
2022-12-24T04:23:24.766Z,8.70
2022-12-24T04:25:51.276Z,8.70
2022-12-24T04:28:17.826Z,8.70
2022-12-24T04:30:44.323Z,8.70
2022-12-24T04:33:10.828Z,8.70
2022-12-24T04:35:37.351Z,8.70
2022-12-24T04:38:03.889Z,8.80
2022-12-24T04:40:30.413Z,8.70
2022-12-24T04:42:56.930Z,8.70
2022-12-24T04:45:23.475Z,8.70
2022-12-24T04:47:49.979Z,8.80
2022-12-24T04:50:16.488Z,8.80
2022-12-24T04:52:43.028Z,8.80
2022-12-24T04:55:09.520Z,8.80
2022-12-24T04:57:37.765Z,8.70
2022-12-24T05:00:04.313Z,8.70
2022-12-24T05:02:30.988Z,8.70
2022-12-24T05:04:57.692Z,8.70
2022-12-24T05:07:24.385Z,8.70
2022-12-24T05:09:50.906Z,8.70
2022-12-24T05:12:17.445Z,8.70
2022-12-24T05:14:43.994Z,8.70
2022-12-24T05:17:10.541Z,8.70
2022-12-24T05:19:37.066Z,8.70
2022-12-24T05:22:22.385Z,8.70
2022-12-24T05:25:07.529Z,8.80
2022-12-24T05:27:34.031Z,8.80
2022-12-24T05:30:00.541Z,8.70
2022-12-24T05:32:28.582Z,8.70
2022-12-24T05:34:55.103Z,8.70
2022-12-24T05:37:21.612Z,8.80
2022-12-24T05:39:48.139Z,8.80
2022-12-24T05:42:14.651Z,8.80
2022-12-24T05:44:41.176Z,8.80
2022-12-24T05:47:07.708Z,8.80
2022-12-24T05:49:34.279Z,8.80
2022-12-24T05:52:00.805Z,8.80
2022-12-24T05:54:27.289Z,8.80
2022-12-24T05:56:53.839Z,8.90
2022-12-24T05:59:20.357Z,8.90
2022-12-24T06:01:48.262Z,8.90
2022-12-24T06:04:14.974Z,8.90
2022-12-24T06:06:41.481Z,8.90
2022-12-24T06:09:07.980Z,8.90
2022-12-24T06:11:34.546Z,8.90
2022-12-24T06:14:01.035Z,8.90
2022-12-24T06:16:27.578Z,8.90
2022-12-24T06:18:54.231Z,8.90
2022-12-24T06:21:20.743Z,8.90
2022-12-24T06:23:47.455Z,8.90
2022-12-24T06:26:13.940Z,8.90
2022-12-24T06:28:40.465Z,8.90
2022-12-24T06:31:07.143Z,8.90
2022-12-24T06:33:33.715Z,8.90
2022-12-24T06:36:00.348Z,8.90
2022-12-24T06:38:26.989Z,8.90
2022-12-24T06:40:55.751Z,8.90
2022-12-24T06:43:22.501Z,8.90
2022-12-24T06:45:48.992Z,9.00
2022-12-24T06:48:15.555Z,9.00
2022-12-24T06:50:42.046Z,9.00
2022-12-24T06:53:08.626Z,9.00
2022-12-24T06:55:35.180Z,9.00
2022-12-24T06:58:01.700Z,8.90
2022-12-24T07:00:28.256Z,9.00
2022-12-24T07:02:54.890Z,9.00
2022-12-24T07:05:21.428Z,9.00
2022-12-24T07:07:48.049Z,9.00
2022-12-24T07:10:14.654Z,8.90
2022-12-24T07:12:41.249Z,9.00
2022-12-24T07:15:07.728Z,9.00
2022-12-24T07:17:34.326Z,9.00
2022-12-24T07:20:00.867Z,9.00
2022-12-24T07:22:27.393Z,9.00
2022-12-24T07:24:53.941Z,9.00
2022-12-24T07:27:20.451Z,9.00
2022-12-24T07:29:46.997Z,9.00
2022-12-24T07:32:13.526Z,9.00
2022-12-24T07:34:40.043Z,9.00
2022-12-24T07:37:06.618Z,9.00
2022-12-24T07:39:33.133Z,9.00
2022-12-24T07:41:59.633Z,9.00
2022-12-24T07:44:26.116Z,8.90
2022-12-24T07:46:52.776Z,9.00
2022-12-24T07:49:19.394Z,9.00
2022-12-24T07:51:45.929Z,9.00
2022-12-24T07:54:12.487Z,9.00
2022-12-24T07:56:38.999Z,9.00
2022-12-24T07:59:05.535Z,9.00
2022-12-24T08:01:32.177Z,9.00
2022-12-24T08:03:58.884Z,9.00
2022-12-24T08:06:25.423Z,9.00
2022-12-24T08:08:51.957Z,9.00
2022-12-24T08:11:18.501Z,9.00
2022-12-24T08:13:45.039Z,9.00
2022-12-24T08:16:11.600Z,9.00
2022-12-24T08:18:38.120Z,9.00
2022-12-24T08:21:04.644Z,9.00
2022-12-24T08:23:31.212Z,9.00
2022-12-24T08:25:57.768Z,9.00
2022-12-24T08:28:24.266Z,9.00
2022-12-24T08:30:50.853Z,9.00
2022-12-24T08:33:17.477Z,9.00
2022-12-24T08:35:43.975Z,9.00
2022-12-24T08:38:10.491Z,9.00
2022-12-24T08:40:36.989Z,9.00
2022-12-24T08:43:03.493Z,9.00
2022-12-24T08:45:34.646Z,9.00
2022-12-24T08:48:04.578Z,9.00
2022-12-24T08:50:31.100Z,9.10
2022-12-24T08:52:57.663Z,9.10
2022-12-24T08:55:24.160Z,9.10
2022-12-24T08:57:51.705Z,9.10
2022-12-24T09:00:18.253Z,9.10
2022-12-24T09:02:44.988Z,9.00
2022-12-24T09:05:11.579Z,9.00
2022-12-24T09:07:38.126Z,9.00
2022-12-24T09:10:04.614Z,9.10
2022-12-24T09:12:31.150Z,9.00
2022-12-24T09:15:03.163Z,9.00
2022-12-24T09:17:30.710Z,9.00
2022-12-24T09:19:57.252Z,9.00
2022-12-24T09:22:23.768Z,9.00
2022-12-24T09:24:50.315Z,9.00
2022-12-24T09:27:16.896Z,9.00
2022-12-24T09:29:43.392Z,8.90
2022-12-24T09:32:10.069Z,8.90
2022-12-24T09:34:36.637Z,8.90
2022-12-24T09:37:03.275Z,9.00
2022-12-24T09:39:29.842Z,9.00
2022-12-24T09:41:56.358Z,9.00
2022-12-24T09:44:23.083Z,9.00
2022-12-24T09:46:49.560Z,9.10
2022-12-24T09:49:16.072Z,9.10
2022-12-24T09:51:42.902Z,9.10
2022-12-24T09:54:09.409Z,9.10
2022-12-24T09:56:35.904Z,9.20
2022-12-24T09:59:02.566Z,9.20
2022-12-24T10:01:29.263Z,9.20
2022-12-24T10:03:57.200Z,9.30
2022-12-24T10:06:29.069Z,9.30
2022-12-24T10:08:56.154Z,9.30
2022-12-24T10:11:22.692Z,9.40
2022-12-24T10:13:49.225Z,9.40
2022-12-24T10:16:15.763Z,9.40
2022-12-24T10:18:48.871Z,9.50
2022-12-24T10:21:15.769Z,9.50
2022-12-24T10:23:42.273Z,9.50
2022-12-24T10:26:08.782Z,9.50
2022-12-24T10:28:35.538Z,9.50
2022-12-24T10:31:02.159Z,9.40
2022-12-24T10:33:28.742Z,9.40
2022-12-24T10:35:55.823Z,9.40
2022-12-24T10:38:22.399Z,9.50
2022-12-24T10:40:48.953Z,9.50
2022-12-24T10:43:15.584Z,9.50
2022-12-24T10:45:42.146Z,9.50
2022-12-24T10:48:09.227Z,9.50
2022-12-24T10:50:35.807Z,9.50
2022-12-24T10:53:02.358Z,9.50
2022-12-24T10:55:28.858Z,9.50
2022-12-24T10:57:55.353Z,9.60
2022-12-24T11:00:21.841Z,9.50
2022-12-24T11:02:48.499Z,9.50
2022-12-24T11:05:15.136Z,9.50
2022-12-24T11:07:41.633Z,9.50
2022-12-24T11:10:08.158Z,9.50
2022-12-24T11:12:34.876Z,9.50
2022-12-24T11:15:01.367Z,9.50
2022-12-24T11:17:27.892Z,9.40
2022-12-24T11:19:54.409Z,9.50
2022-12-24T11:22:20.899Z,9.50
2022-12-24T11:24:50.295Z,9.60
2022-12-24T11:27:17.035Z,9.60
2022-12-24T11:29:43.564Z,9.60
2022-12-24T11:32:10.079Z,9.70
2022-12-24T11:34:36.567Z,9.80
2022-12-24T11:37:03.059Z,9.80
2022-12-24T11:39:29.557Z,9.80
2022-12-24T11:41:56.125Z,9.90
2022-12-24T11:44:22.640Z,10.10
2022-12-24T11:46:52.871Z,10.30
2022-12-24T11:49:19.441Z,10.50
2022-12-24T11:51:45.950Z,10.60
2022-12-24T11:54:12.475Z,10.60
2022-12-24T11:56:38.990Z,10.50
2022-12-24T11:59:05.490Z,10.50
2022-12-24T12:01:32.051Z,10.60
2022-12-24T12:03:58.582Z,10.50
2022-12-24T12:06:25.184Z,10.30
2022-12-24T12:08:51.694Z,10.20
2022-12-24T12:11:18.194Z,10.20
2022-12-24T12:13:45.019Z,10.10
2022-12-24T12:16:11.617Z,10.10
2022-12-24T12:18:38.154Z,10.10
2022-12-24T12:21:04.770Z,10.00
2022-12-24T12:23:31.297Z,9.90
2022-12-24T12:25:57.816Z,9.90
2022-12-24T12:28:24.333Z,9.90
2022-12-24T12:30:50.855Z,9.90
2022-12-24T12:33:17.567Z,9.80
2022-12-24T12:35:44.172Z,9.80
2022-12-24T12:38:10.714Z,9.80
2022-12-24T12:40:37.229Z,9.80
2022-12-24T12:43:07.508Z,9.70
2022-12-24T12:45:36.070Z,9.80
2022-12-24T12:48:02.591Z,9.80
2022-12-24T12:50:29.115Z,9.80
2022-12-24T12:52:55.650Z,9.80
2022-12-24T12:55:24.673Z,9.80
2022-12-24T12:57:51.521Z,9.80
2022-12-24T13:00:18.017Z,9.80
2022-12-24T13:02:44.630Z,9.70
2022-12-24T13:05:15.317Z,9.70
2022-12-24T13:07:42.063Z,9.60
2022-12-24T13:10:08.586Z,9.70
2022-12-24T13:12:35.141Z,9.70
2022-12-24T13:15:01.639Z,9.80
2022-12-24T13:17:28.184Z,9.90
2022-12-24T13:19:54.708Z,9.90
2022-12-24T13:22:21.230Z,10.00
2022-12-24T13:24:51.463Z,10.00
2022-12-24T13:27:18.963Z,10.00
2022-12-24T13:29:45.547Z,10.00
2022-12-24T13:32:12.233Z,10.10
2022-12-24T13:34:38.743Z,10.10
2022-12-24T13:37:05.258Z,10.20
2022-12-24T13:39:31.735Z,10.30
2022-12-24T13:41:58.314Z,10.20
2022-12-24T13:44:24.883Z,10.30
2022-12-24T13:46:51.478Z,10.20
2022-12-24T13:49:17.957Z,10.20
2022-12-24T13:51:44.447Z,10.10
2022-12-24T13:54:10.934Z,10.20
2022-12-24T13:56:37.457Z,10.20
2022-12-24T13:59:03.939Z,10.20
2022-12-24T14:01:30.745Z,10.20
2022-12-24T14:03:57.398Z,10.20
2022-12-24T14:06:23.904Z,10.30
2022-12-24T14:08:50.642Z,10.30
2022-12-24T14:11:17.149Z,10.30
2022-12-24T14:13:43.640Z,10.30
2022-12-24T14:16:10.215Z,10.20
2022-12-24T14:18:36.735Z,10.20
2022-12-24T14:21:03.303Z,10.20
2022-12-24T14:23:30.110Z,10.20
2022-12-24T14:25:56.629Z,10.10
2022-12-24T14:28:23.121Z,10.00
2022-12-24T14:30:49.630Z,10.00
2022-12-24T14:33:16.164Z,10.00
2022-12-24T14:35:42.653Z,10.00
2022-12-24T14:38:09.217Z,9.90
2022-12-24T14:40:35.724Z,9.90
2022-12-24T14:43:02.225Z,9.90
2022-12-24T14:45:28.772Z,9.90
2022-12-24T14:47:55.362Z,9.90
2022-12-24T14:50:21.863Z,9.80
2022-12-24T14:53:05.983Z,9.80
2022-12-24T14:55:34.647Z,9.80
2022-12-24T14:58:01.129Z,9.70
2022-12-24T15:00:27.626Z,9.70
2022-12-24T15:02:54.205Z,9.60
2022-12-24T15:05:20.806Z,9.70
2022-12-24T15:07:47.912Z,9.60
2022-12-24T15:10:14.505Z,9.60
2022-12-24T15:12:41.006Z,9.60
2022-12-24T15:15:07.517Z,9.50
2022-12-24T15:17:34.030Z,9.50
2022-12-24T15:20:01.805Z,9.50
2022-12-24T15:22:28.438Z,9.40
2022-12-24T15:24:54.941Z,9.40
2022-12-24T15:27:21.426Z,9.30
2022-12-24T15:29:47.905Z,9.30
2022-12-24T15:32:14.586Z,9.20
2022-12-24T15:34:41.127Z,9.20
2022-12-24T15:37:07.728Z,9.20
2022-12-24T15:39:34.452Z,9.10
2022-12-24T15:42:13.327Z,9.10
2022-12-24T15:44:39.872Z,9.00
2022-12-24T15:47:06.375Z,8.90
2022-12-24T15:49:32.878Z,8.90
2022-12-24T15:51:59.382Z,8.90
2022-12-24T15:54:25.860Z,8.90
2022-12-24T15:56:52.373Z,8.80
2022-12-24T15:59:18.845Z,8.80
2022-12-24T16:01:45.484Z,8.70
2022-12-24T16:04:12.034Z,8.70
2022-12-24T16:06:38.561Z,8.60
2022-12-24T16:09:05.085Z,8.60
2022-12-24T16:11:31.577Z,8.60
2022-12-24T16:13:58.082Z,8.50
2022-12-24T16:16:24.684Z,8.50
2022-12-24T16:18:51.368Z,8.60
2022-12-24T16:21:17.903Z,8.50
2022-12-24T16:23:44.393Z,8.50
2022-12-24T16:26:10.895Z,8.50
2022-12-24T16:28:37.417Z,8.40
2022-12-24T16:31:03.995Z,8.40
2022-12-24T16:33:30.586Z,8.40
2022-12-24T16:35:57.219Z,8.30
2022-12-24T16:38:23.760Z,8.30
2022-12-24T16:40:50.259Z,8.30
2022-12-24T16:43:35.647Z,8.30
2022-12-24T16:46:02.297Z,8.30
2022-12-24T16:48:28.895Z,8.30
2022-12-24T16:50:55.495Z,8.20
2022-12-24T16:53:21.971Z,8.10
2022-12-24T16:55:49.823Z,8.00
2022-12-24T16:58:16.736Z,8.00
2022-12-24T17:00:43.252Z,8.00
2022-12-24T17:03:09.819Z,8.00
2022-12-24T17:05:36.358Z,7.90
2022-12-24T17:08:02.841Z,8.00
2022-12-24T17:10:29.419Z,7.90
2022-12-24T17:12:55.924Z,7.90
2022-12-24T17:15:22.417Z,7.90
2022-12-24T17:17:48.924Z,7.90
2022-12-24T17:20:20.321Z,7.90
2022-12-24T17:22:50.516Z,7.80
2022-12-24T17:25:17.102Z,7.80
2022-12-24T17:27:43.645Z,7.80
2022-12-24T17:30:10.196Z,7.70
2022-12-24T17:32:37.372Z,7.70
2022-12-24T17:35:04.060Z,7.70
2022-12-24T17:37:30.558Z,7.70
2022-12-24T17:39:57.220Z,7.70
2022-12-24T17:42:23.768Z,7.70
2022-12-24T17:44:50.263Z,7.60
2022-12-24T17:47:17.020Z,7.60
2022-12-24T17:49:43.583Z,7.50
2022-12-24T17:52:10.142Z,7.50
2022-12-24T17:54:36.716Z,7.50
2022-12-24T17:57:03.229Z,7.50
2022-12-24T17:59:29.811Z,7.40
2022-12-24T18:01:56.447Z,7.40
2022-12-24T18:04:23.083Z,7.40
2022-12-24T18:06:50.067Z,7.40
2022-12-24T18:09:16.662Z,7.40
2022-12-24T18:11:43.241Z,7.30
2022-12-24T18:14:09.746Z,7.30
2022-12-24T18:16:36.395Z,7.20
2022-12-24T18:19:02.955Z,7.20
2022-12-24T18:21:29.477Z,7.20
2022-12-24T18:23:56.760Z,7.20
2022-12-24T18:26:23.254Z,7.10
2022-12-24T18:28:49.745Z,6.90
2022-12-24T18:31:16.339Z,6.80
2022-12-24T18:33:42.994Z,6.80
2022-12-24T18:36:09.577Z,6.80
2022-12-24T18:38:36.065Z,6.80
2022-12-24T18:41:02.587Z,6.80
2022-12-24T18:43:29.114Z,6.70
2022-12-24T18:45:55.623Z,6.60
2022-12-24T18:48:22.412Z,6.60
2022-12-24T18:50:48.930Z,6.60
2022-12-24T18:53:15.533Z,6.60
2022-12-24T18:55:42.075Z,6.80
2022-12-24T18:58:08.552Z,6.80
2022-12-24T19:00:35.290Z,6.70
2022-12-24T19:03:01.946Z,6.80
2022-12-24T19:05:28.453Z,6.70
2022-12-24T19:07:54.957Z,6.70
2022-12-24T19:10:21.463Z,6.70
2022-12-24T19:12:48.011Z,6.70
2022-12-24T19:15:15.061Z,6.70
2022-12-24T19:17:41.569Z,6.70
2022-12-24T19:20:08.082Z,6.80
2022-12-24T19:22:34.572Z,6.80
2022-12-24T19:25:01.144Z,6.80
2022-12-24T19:27:27.653Z,6.80
2022-12-24T19:29:54.265Z,6.70
2022-12-24T19:32:20.784Z,6.80
2022-12-24T19:34:47.380Z,6.80
2022-12-24T19:37:13.954Z,6.80
2022-12-24T19:39:40.567Z,6.90
2022-12-24T19:42:07.087Z,6.90
2022-12-24T19:44:33.561Z,6.90
2022-12-24T19:47:00.032Z,6.90
2022-12-24T19:49:26.551Z,6.90
2022-12-24T19:51:54.616Z,6.90
2022-12-24T19:54:21.320Z,7.00
2022-12-24T19:56:47.943Z,6.90
2022-12-24T19:59:14.445Z,7.00
2022-12-24T20:01:41.138Z,7.00
2022-12-24T20:04:07.944Z,7.00
2022-12-24T20:06:34.577Z,7.10
2022-12-24T20:09:01.150Z,7.10
2022-12-24T20:11:27.689Z,7.10
2022-12-24T20:13:54.197Z,7.10
2022-12-24T20:16:20.975Z,7.10
2022-12-24T20:18:47.796Z,7.10
2022-12-24T20:21:14.339Z,7.10
2022-12-24T20:23:41.013Z,7.00
2022-12-24T20:26:07.689Z,7.10
2022-12-24T20:28:34.173Z,7.00
2022-12-24T20:31:00.861Z,7.10
2022-12-24T20:33:27.402Z,7.00
2022-12-24T20:35:53.965Z,7.10
2022-12-24T20:38:20.493Z,7.20
2022-12-24T20:40:47.170Z,7.20
2022-12-24T20:43:13.702Z,7.20
2022-12-24T20:45:40.977Z,7.20
2022-12-24T20:48:07.672Z,7.20
2022-12-24T20:50:34.203Z,7.10
2022-12-24T20:53:00.757Z,7.10
2022-12-24T20:55:27.418Z,7.10
2022-12-24T20:57:53.905Z,7.10
2022-12-24T21:00:20.400Z,7.10
2022-12-24T21:02:47.198Z,7.10
2022-12-24T21:05:13.919Z,7.10
2022-12-24T21:07:42.779Z,7.10
2022-12-24T21:10:09.256Z,7.10
2022-12-24T21:12:58.722Z,7.10
2022-12-24T21:15:25.339Z,7.10
2022-12-24T21:17:51.824Z,7.10
2022-12-24T21:20:18.352Z,7.10
2022-12-24T21:22:44.861Z,7.20
2022-12-24T21:25:11.470Z,7.20
2022-12-24T21:27:37.996Z,7.20
2022-12-24T21:30:04.489Z,7.20
2022-12-24T21:32:31.019Z,7.20
2022-12-24T21:34:57.623Z,7.20
2022-12-24T21:37:24.131Z,7.30
2022-12-24T21:39:50.827Z,7.30
2022-12-24T21:42:17.361Z,7.30
2022-12-24T21:44:43.918Z,7.30
2022-12-24T21:47:11.006Z,7.40
2022-12-24T21:49:56.382Z,7.30
2022-12-24T21:52:22.925Z,7.30
2022-12-24T21:54:49.406Z,7.30
2022-12-24T21:57:34.668Z,7.30
2022-12-24T22:00:21.138Z,7.30
2022-12-24T22:02:47.810Z,7.20
2022-12-24T22:05:14.378Z,7.20
2022-12-24T22:07:59.789Z,7.20
2022-12-24T22:10:44.940Z,7.20
2022-12-24T22:13:11.484Z,7.10
2022-12-24T22:15:38.025Z,7.10
2022-12-24T22:18:04.534Z,7.10
2022-12-24T22:20:31.075Z,7.10
2022-12-24T22:22:57.574Z,7.10
2022-12-24T22:25:24.090Z,7.10
2022-12-24T22:27:50.839Z,7.10
2022-12-24T22:30:17.359Z,7.10
2022-12-24T22:32:43.950Z,7.00
2022-12-24T22:35:10.453Z,7.00
2022-12-24T22:37:36.964Z,7.00
2022-12-24T22:40:03.497Z,7.00
2022-12-24T22:42:30.065Z,7.00
2022-12-24T22:44:56.536Z,7.00
2022-12-24T22:47:23.055Z,6.90
2022-12-24T22:49:49.645Z,6.90
2022-12-24T22:52:16.195Z,6.90
2022-12-24T22:54:42.851Z,6.90
2022-12-24T22:57:09.332Z,6.90
2022-12-24T22:59:35.815Z,6.90
2022-12-24T23:02:02.674Z,6.90
2022-12-24T23:04:29.303Z,6.90
2022-12-24T23:06:55.857Z,6.90
2022-12-24T23:09:22.339Z,6.90
2022-12-24T23:11:48.906Z,6.90
2022-12-24T23:14:34.445Z,6.90
2022-12-24T23:17:00.962Z,6.90
2022-12-24T23:19:27.437Z,6.80
2022-12-24T23:21:53.935Z,6.80
2022-12-24T23:24:20.593Z,6.80
2022-12-24T23:26:47.314Z,6.80
2022-12-24T23:29:13.837Z,6.80
2022-12-24T23:31:40.363Z,6.80
2022-12-24T23:34:06.910Z,6.80
2022-12-24T23:36:33.438Z,6.80
2022-12-24T23:38:59.933Z,6.80
2022-12-24T23:41:26.482Z,6.90
2022-12-24T23:43:53.055Z,6.90
2022-12-24T23:46:19.676Z,6.90
2022-12-24T23:48:46.255Z,6.90
2022-12-24T23:51:12.902Z,6.90
2022-12-24T23:53:39.519Z,7.00
2022-12-24T23:56:06.032Z,7.00
2022-12-24T23:58:32.660Z,6.90
